Time;durP1;ratioP1;P1;durP2;ratioP2;P2;SDS_P1;SDS_P2;PMS_P1;PMS_P2;Temp;Humidity;BMP_temperature;BMP_pressure;BME280_temperature;BME280_humidity;BME280_pressure;Samples;Min_cycle;Max_cycle;Signal;HPM_P1;HPM_P2
2023/12/27 00:01:52;;;;;;;9.52;3.67;;;;;;;;;;5073454;28;20052;-58
2023/12/27 00:04:19;;;;;;;9.73;3.97;;;;;;;;;;5073052;28;20516;-59
2023/12/27 00:06:46;;;;;;;10.63;3.88;;;;;;;;;;5073418;28;20402;-58
2023/12/27 00:09:12;;;;;;;8.68;3.63;;;;;;;;;;5073332;28;20485;-59
2023/12/27 00:11:39;;;;;;;8.55;3.65;;;;;;;;;;5073486;28;20409;-59
2023/12/27 00:14:06;;;;;;;9.43;3.75;;;;;;;;;;5073278;28;20481;-58
2023/12/27 00:16:33;;;;;;;10.05;3.42;;;;;;;;;;5073520;28;20053;-59
2023/12/27 00:19:00;;;;;;;7.68;3.30;;;;;;;;;;5073095;28;20060;-59
2023/12/27 00:21:27;;;;;;;11.15;3.42;;;;;;;;;;5073420;28;20060;-58
2023/12/27 00:23:54;;;;;;;10.05;3.85;;;;;;;;;;5073411;28;20071;-58
2023/12/27 00:26:20;;;;;;;11.65;3.65;;;;;;;;;;5073287;28;20527;-59
2023/12/27 00:28:47;;;;;;;12.05;3.53;;;;;;;;;;5072933;28;20048;-58
2023/12/27 00:31:14;;;;;;;9.73;3.33;;;;;;;;;;5073295;28;20362;-58
2023/12/27 00:33:42;;;;;;;9.73;3.42;;;;;;;;;;5073110;28;20052;-58
2023/12/27 00:36:09;;;;;;;11.02;3.63;;;;;;;;;;5072926;28;20492;-58
2023/12/27 00:38:36;;;;;;;8.15;3.67;;;;;;;;;;5073004;28;20122;-57
2023/12/27 00:41:04;;;;;;;9.05;3.60;;;;;;;;;;5073082;28;20056;-58
2023/12/27 00:43:31;;;;;;;9.73;3.30;;;;;;;;;;5072870;28;20048;-58
2023/12/27 00:45:57;;;;;;;8.00;3.33;;;;;;;;;;5072370;28;20056;-57
2023/12/27 00:48:24;;;;;;;9.18;3.63;;;;;;;;;;5072485;28;20052;-57
2023/12/27 00:50:53;;;;;;;9.15;3.47;;;;;;;;;;5072825;28;20474;-58
2023/12/27 00:53:20;;;;;;;10.03;3.83;;;;;;;;;;5072722;28;20056;-58
2023/12/27 00:55:47;;;;;;;8.60;3.42;;;;;;;;;;5072811;28;20064;-58
2023/12/27 00:58:13;;;;;;;12.52;4.10;;;;;;;;;;5072898;28;20506;-58
2023/12/27 01:00:40;;;;;;;12.05;4.10;;;;;;;;;;5072679;28;20497;-58
2023/12/27 01:03:07;;;;;;;10.13;3.88;;;;;;;;;;5072659;28;20086;-58
2023/12/27 01:05:34;;;;;;;9.10;3.65;;;;;;;;;;5072314;28;20064;-58
2023/12/27 01:08:03;;;;;;;9.02;4.15;;;;;;;;;;5072494;28;20048;-60
2023/12/27 01:10:29;;;;;;;10.45;3.90;;;;;;;;;;5071986;28;20072;-58
2023/12/27 01:12:56;;;;;;;10.45;3.63;;;;;;;;;;5072367;28;20405;-58
2023/12/27 01:15:23;;;;;;;10.73;3.90;;;;;;;;;;5072538;28;20397;-57
2023/12/27 01:17:50;;;;;;;11.05;3.58;;;;;;;;;;5072061;28;20048;-57
2023/12/27 01:20:17;;;;;;;12.55;3.97;;;;;;;;;;5072311;28;20056;-58
2023/12/27 01:22:43;;;;;;;10.07;3.95;;;;;;;;;;5071407;28;20053;-57
2023/12/27 01:25:12;;;;;;;13.32;4.30;;;;;;;;;;5072070;28;20055;-58
2023/12/27 01:27:38;;;;;;;9.52;4.47;;;;;;;;;;5072182;28;20429;-58
2023/12/27 01:30:06;;;;;;;10.27;4.10;;;;;;;;;;5072408;28;20063;-58
2023/12/27 01:32:33;;;;;;;10.20;4.00;;;;;;;;;;5072156;28;20497;-59
2023/12/27 01:35:00;;;;;;;11.35;4.50;;;;;;;;;;5072297;28;20048;-58
2023/12/27 01:37:27;;;;;;;9.32;3.35;;;;;;;;;;5072213;28;20394;-59
2023/12/27 01:39:54;;;;;;;9.75;3.85;;;;;;;;;;5072282;28;20056;-58
2023/12/27 01:42:22;;;;;;;10.15;3.83;;;;;;;;;;5072339;28;20049;-58
2023/12/27 01:44:49;;;;;;;10.35;4.05;;;;;;;;;;5072063;28;20052;-58
2023/12/27 01:47:16;;;;;;;11.45;3.95;;;;;;;;;;5072222;28;20505;-58
2023/12/27 01:49:43;;;;;;;10.85;4.03;;;;;;;;;;5071955;28;20056;-59
2023/12/27 01:52:10;;;;;;;14.70;4.13;;;;;;;;;;5072132;28;20401;-58
2023/12/27 01:54:37;;;;;;;13.85;4.28;;;;;;;;;;5071883;28;20057;-58
2023/12/27 01:57:04;;;;;;;11.88;4.53;;;;;;;;;;5072211;28;20055;-59
2023/12/27 01:59:32;;;;;;;9.20;4.38;;;;;;;;;;5072142;28;20079;-58
2023/12/27 02:01:59;;;;;;;10.18;4.30;;;;;;;;;;5071928;28;20064;-58
2023/12/27 02:04:26;;;;;;;10.30;4.25;;;;;;;;;;5071599;28;20164;-59
2023/12/27 02:06:53;;;;;;;13.32;4.78;;;;;;;;;;5071977;28;20055;-58
2023/12/27 02:09:20;;;;;;;12.05;5.20;;;;;;;;;;5071678;28;20053;-58
2023/12/27 02:11:47;;;;;;;10.57;5.13;;;;;;;;;;5071991;28;20060;-59
2023/12/27 02:14:13;;;;;;;16.23;6.53;;;;;;;;;;5071651;28;20056;-58
2023/12/27 02:16:42;;;;;;;18.05;7.57;;;;;;;;;;5072043;28;20059;-58
2023/12/27 02:19:12;;;;;;;17.48;8.90;;;;;;;;;;5071394;28;20063;-59
2023/12/27 02:21:38;;;;;;;24.63;10.07;;;;;;;;;;5072041;28;20057;-59
2023/12/27 02:24:06;;;;;;;18.92;9.70;;;;;;;;;;5071351;28;20056;-58
2023/12/27 02:26:34;;;;;;;17.85;8.80;;;;;;;;;;5071943;28;20413;-59
2023/12/27 02:29:01;;;;;;;18.73;8.43;;;;;;;;;;5071720;28;20049;-59
2023/12/27 02:31:27;;;;;;;19.05;10.18;;;;;;;;;;5071887;28;20059;-59
2023/12/27 02:33:54;;;;;;;16.75;8.40;;;;;;;;;;5074006;28;20052;-58
2023/12/27 02:36:21;;;;;;;23.83;10.15;;;;;;;;;;5075441;28;20470;-59
2023/12/27 02:38:48;;;;;;;17.45;8.52;;;;;;;;;;5075348;28;20530;-59
2023/12/27 02:41:15;;;;;;;18.92;7.25;;;;;;;;;;5075557;28;20397;-59
2023/12/27 02:43:43;;;;;;;14.50;6.45;;;;;;;;;;5075277;28;20059;-59
2023/12/27 02:46:09;;;;;;;12.68;6.18;;;;;;;;;;5074826;28;20048;-59
2023/12/27 02:48:36;;;;;;;14.63;6.47;;;;;;;;;;5075132;28;20053;-59
2023/12/27 02:51:03;;;;;;;16.55;6.38;;;;;;;;;;5075165;28;20053;-59
2023/12/27 02:53:30;;;;;;;12.60;5.75;;;;;;;;;;5074815;28;20135;-58
2023/12/27 02:55:57;;;;;;;13.18;5.22;;;;;;;;;;5075087;28;20123;-58
2023/12/27 02:58:24;;;;;;;14.75;6.60;;;;;;;;;;5075004;28;20431;-58
2023/12/27 03:00:52;;;;;;;17.27;5.97;;;;;;;;;;5075037;28;20075;-58
2023/12/27 03:03:19;;;;;;;13.15;5.47;;;;;;;;;;5075023;28;20405;-59
2023/12/27 03:05:45;;;;;;;12.98;6.30;;;;;;;;;;5074531;28;20067;-59
2023/12/27 03:08:12;;;;;;;15.20;6.10;;;;;;;;;;5074646;28;20052;-59
2023/12/27 03:10:39;;;;;;;17.08;6.80;;;;;;;;;;5074820;28;20060;-58
2023/12/27 03:13:06;;;;;;;12.75;5.93;;;;;;;;;;5074691;28;20064;-58
2023/12/27 03:15:33;;;;;;;17.80;6.32;;;;;;;;;;5074542;28;20052;-59
2023/12/27 03:18:01;;;;;;;17.90;7.38;;;;;;;;;;5074647;28;20500;-59
2023/12/27 03:20:28;;;;;;;15.02;6.47;;;;;;;;;;5074394;28;20067;-59
2023/12/27 03:22:54;;;;;;;16.50;7.32;;;;;;;;;;5074461;28;20048;-59
2023/12/27 03:25:21;;;;;;;17.60;7.57;;;;;;;;;;5074185;28;20053;-59
2023/12/27 03:27:48;;;;;;;21.92;10.32;;;;;;;;;;5074310;28;20048;-59
2023/12/27 03:30:15;;;;;;;22.75;10.90;;;;;;;;;;5074178;28;20053;-59
2023/12/27 03:32:41;;;;;;;23.50;12.02;;;;;;;;;;5074138;28;20059;-59
2023/12/27 03:35:10;;;;;;;25.00;10.80;;;;;;;;;;5073955;28;20060;-59
2023/12/27 03:37:36;;;;;;;21.08;10.63;;;;;;;;;;5071732;28;20064;-59
2023/12/27 03:40:04;;;;;;;23.60;11.70;;;;;;;;;;5073393;28;20501;-59
2023/12/27 03:42:31;;;;;;;21.40;11.00;;;;;;;;;;5073734;28;20056;-59
2023/12/27 03:44:58;;;;;;;24.95;11.15;;;;;;;;;;5073234;28;20056;-59
2023/12/27 03:47:25;;;;;;;22.30;11.70;;;;;;;;;;5073802;28;20059;-58
2023/12/27 03:49:51;;;;;;;20.65;11.23;;;;;;;;;;5073582;28;20049;-59
2023/12/27 03:52:20;;;;;;;25.77;13.88;;;;;;;;;;5073751;28;20059;-59
2023/12/27 03:54:46;;;;;;;23.00;12.45;;;;;;;;;;5073724;28;20052;-59
2023/12/27 03:57:13;;;;;;;23.40;12.77;;;;;;;;;;5073742;28;20063;-59
2023/12/27 03:59:40;;;;;;;23.95;12.63;;;;;;;;;;5073226;28;20056;-59
2023/12/27 04:02:07;;;;;;;27.88;13.38;;;;;;;;;;5073381;28;20056;-60
2023/12/27 04:04:34;;;;;;;26.02;12.73;;;;;;;;;;5073087;28;20521;-58
2023/12/27 04:07:01;;;;;;;25.60;11.93;;;;;;;;;;5073204;28;20056;-59
2023/12/27 04:09:29;;;;;;;21.92;11.82;;;;;;;;;;5073224;28;20053;-59
2023/12/27 04:11:56;;;;;;;17.73;10.75;;;;;;;;;;5073254;28;20052;-59
2023/12/27 04:14:23;;;;;;;22.02;10.55;;;;;;;;;;5072911;28;20060;-59
2023/12/27 04:16:51;;;;;;;18.50;9.52;;;;;;;;;;5073280;28;20053;-59
2023/12/27 04:19:18;;;;;;;15.60;8.70;;;;;;;;;;5073053;28;20386;-59
2023/12/27 04:21:44;;;;;;;16.52;8.27;;;;;;;;;;5073460;28;20486;-58
2023/12/27 04:24:11;;;;;;;12.80;8.40;;;;;;;;;;5073376;28;20461;-58
2023/12/27 04:26:40;;;;;;;24.88;9.02;;;;;;;;;;5073560;28;20057;-58
2023/12/27 04:29:07;;;;;;;17.90;8.05;;;;;;;;;;5072724;28;20044;-59
2023/12/27 04:31:33;;;;;;;16.40;8.10;;;;;;;;;;5073180;28;20420;-58
2023/12/27 04:33:59;;;;;;;15.90;8.70;;;;;;;;;;5073247;28;20059;-59
2023/12/27 04:36:26;;;;;;;16.10;9.18;;;;;;;;;;5072881;28;20048;-58
2023/12/27 04:38:53;;;;;;;18.05;8.95;;;;;;;;;;5072701;28;20409;-59
2023/12/27 04:41:20;;;;;;;18.15;9.25;;;;;;;;;;5073009;28;20409;-58
2023/12/27 04:43:48;;;;;;;18.42;9.30;;;;;;;;;;5072823;28;20166;-58
2023/12/27 04:46:15;;;;;;;16.75;9.27;;;;;;;;;;5072427;28;20049;-58
2023/12/27 04:48:40;;;;;;;19.95;10.23;;;;;;;;;;5072397;28;20486;-59
2023/12/27 04:51:08;;;;;;;20.50;9.93;;;;;;;;;;5072496;28;20135;-58
2023/12/27 04:53:35;;;;;;;17.63;9.70;;;;;;;;;;5072520;28;20052;-58
2023/12/27 04:56:01;;;;;;;21.13;10.35;;;;;;;;;;5072022;28;20060;-58
2023/12/27 04:58:28;;;;;;;17.40;9.85;;;;;;;;;;5072098;28;20055;-58
2023/12/27 05:00:56;;;;;;;21.33;9.68;;;;;;;;;;5072619;28;20053;-58
2023/12/27 05:03:23;;;;;;;15.40;9.68;;;;;;;;;;5071920;28;20055;-58
2023/12/27 05:05:50;;;;;;;16.83;9.68;;;;;;;;;;5072435;28;20512;-58
2023/12/27 05:08:17;;;;;;;15.85;9.18;;;;;;;;;;5072100;28;20049;-58
2023/12/27 05:10:43;;;;;;;14.75;8.05;;;;;;;;;;5072435;28;20402;-59
2023/12/27 05:13:10;;;;;;;18.55;10.38;;;;;;;;;;5072171;28;20044;-59
2023/12/27 05:15:37;;;;;;;17.25;9.80;;;;;;;;;;5072148;28;20053;-58
2023/12/27 05:18:05;;;;;;;19.83;10.73;;;;;;;;;;5072460;28;20057;-58
2023/12/27 05:20:32;;;;;;;21.85;10.63;;;;;;;;;;5072402;28;20056;-58
2023/12/27 05:22:59;;;;;;;18.70;10.98;;;;;;;;;;5072202;28;20526;-58
2023/12/27 05:25:26;;;;;;;18.83;10.00;;;;;;;;;;5071947;28;20052;-58
2023/12/27 05:27:53;;;;;;;19.73;9.20;;;;;;;;;;5072322;28;20048;-58
2023/12/27 05:30:20;;;;;;;20.90;10.77;;;;;;;;;;5072120;28;20040;-58
2023/12/27 05:32:46;;;;;;;16.02;9.63;;;;;;;;;;5072159;28;20089;-58
2023/12/27 05:35:14;;;;;;;16.50;9.73;;;;;;;;;;5072141;28;20059;-58
2023/12/27 05:37:41;;;;;;;20.08;10.32;;;;;;;;;;5071832;28;20071;-58
2023/12/27 05:40:09;;;;;;;17.27;10.63;;;;;;;;;;5071807;28;20059;-58
2023/12/27 05:42:35;;;;;;;20.65;11.00;;;;;;;;;;5072145;28;20508;-59
2023/12/27 05:45:03;;;;;;;18.17;10.30;;;;;;;;;;5071778;28;20059;-58
2023/12/27 05:47:30;;;;;;;19.25;10.90;;;;;;;;;;5072117;28;20053;-58
2023/12/27 05:49:57;;;;;;;18.98;10.70;;;;;;;;;;5071830;28;20048;-59
2023/12/27 05:52:25;;;;;;;18.40;11.23;;;;;;;;;;5071817;28;20059;-59
2023/12/27 05:54:52;;;;;;;18.27;9.80;;;;;;;;;;5071753;28;20500;-58
2023/12/27 05:57:18;;;;;;;19.65;10.90;;;;;;;;;;5071761;28;20078;-58
2023/12/27 05:59:45;;;;;;;19.85;10.27;;;;;;;;;;5071851;28;20387;-58
2023/12/27 06:02:12;;;;;;;16.02;10.25;;;;;;;;;;5071896;28;20053;-58
2023/12/27 06:04:40;;;;;;;16.00;9.23;;;;;;;;;;5071278;28;20061;-59
2023/12/27 06:07:07;;;;;;;14.80;9.23;;;;;;;;;;5071832;28;20060;-59
2023/12/27 06:09:35;;;;;;;17.33;10.50;;;;;;;;;;5075320;28;20053;-58
2023/12/27 06:12:02;;;;;;;16.08;10.25;;;;;;;;;;5075563;28;20048;-58
2023/12/27 06:14:29;;;;;;;18.80;9.90;;;;;;;;;;5075575;28;20620;-58
2023/12/27 06:16:56;;;;;;;16.13;9.65;;;;;;;;;;5075424;28;20049;-58
2023/12/27 06:19:22;;;;;;;14.70;9.52;;;;;;;;;;5075520;28;20489;-58
2023/12/27 06:21:49;;;;;;;18.15;8.75;;;;;;;;;;5075533;28;20060;-58
2023/12/27 06:24:16;;;;;;;14.18;9.05;;;;;;;;;;5075243;28;20052;-59
2023/12/27 06:26:44;;;;;;;13.27;8.10;;;;;;;;;;5075421;28;20413;-59
2023/12/27 06:29:11;;;;;;;14.57;9.75;;;;;;;;;;5075052;28;20059;-58
2023/12/27 06:31:38;;;;;;;13.32;7.80;;;;;;;;;;5075616;28;20086;-58
2023/12/27 06:34:04;;;;;;;17.00;9.13;;;;;;;;;;5075312;28;20064;-59
2023/12/27 06:36:31;;;;;;;20.45;9.40;;;;;;;;;;5075275;28;20405;-58
2023/12/27 06:38:58;;;;;;;14.27;8.65;;;;;;;;;;5074826;28;20052;-58
2023/12/27 06:41:25;;;;;;;14.85;8.43;;;;;;;;;;5075416;28;20044;-58
2023/12/27 06:43:53;;;;;;;14.48;9.10;;;;;;;;;;5074841;28;20063;-58
2023/12/27 06:46:20;;;;;;;21.45;12.63;;;;;;;;;;5075260;28;20056;-59
2023/12/27 06:48:46;;;;;;;15.07;9.57;;;;;;;;;;5075093;28;20382;-58
2023/12/27 06:51:13;;;;;;;12.75;8.80;;;;;;;;;;5075057;28;20048;-58
2023/12/27 06:53:40;;;;;;;13.60;8.60;;;;;;;;;;5074945;28;20159;-58
2023/12/27 06:56:07;;;;;;;20.73;10.32;;;;;;;;;;5075056;28;20052;-58
2023/12/27 06:58:34;;;;;;;13.88;8.48;;;;;;;;;;5074838;28;20059;-58
2023/12/27 07:01:02;;;;;;;15.43;9.00;;;;;;;;;;5075025;28;20049;-58
2023/12/27 07:03:28;;;;;;;16.48;9.70;;;;;;;;;;5074221;28;20052;-59
2023/12/27 07:05:55;;;;;;;14.05;8.55;;;;;;;;;;5074868;28;20057;-58
2023/12/27 07:08:22;;;;;;;12.77;8.65;;;;;;;;;;5074721;28;20056;-58
2023/12/27 07:10:49;;;;;;;14.57;9.88;;;;;;;;;;5074619;28;20059;-58
2023/12/27 07:13:15;;;;;;;15.48;8.75;;;;;;;;;;5074637;28;20059;-59
2023/12/27 07:15:42;;;;;;;13.93;8.55;;;;;;;;;;5074709;28;20063;-58
2023/12/27 07:18:11;;;;;;;13.95;8.52;;;;;;;;;;5074628;28;20517;-58
2023/12/27 07:20:37;;;;;;;12.60;8.15;;;;;;;;;;5073614;28;20056;-58
2023/12/27 07:23:04;;;;;;;11.73;8.43;;;;;;;;;;5074530;28;20057;-59
2023/12/27 07:25:31;;;;;;;13.98;8.32;;;;;;;;;;5074400;28;20059;-58
2023/12/27 07:27:58;;;;;;;12.43;8.38;;;;;;;;;;5074366;28;20482;-58
2023/12/27 07:30:24;;;;;;;20.17;8.77;;;;;;;;;;5074090;28;20470;-59
2023/12/27 07:32:51;;;;;;;15.77;9.02;;;;;;;;;;5074301;28;20068;-59
2023/12/27 07:35:20;;;;;;;16.52;7.70;;;;;;;;;;5074164;28;20060;-59
2023/12/27 07:37:46;;;;;;;13.95;8.55;;;;;;;;;;5073983;28;20052;-59
2023/12/27 07:40:14;;;;;;;12.32;8.10;;;;;;;;;;5074242;28;20048;-58
2023/12/27 07:42:41;;;;;;;18.15;8.70;;;;;;;;;;5074190;28;20413;-58
2023/12/27 07:45:08;;;;;;;11.70;8.43;;;;;;;;;;5074007;28;20052;-58
2023/12/27 07:47:35;;;;;;;14.57;9.02;;;;;;;;;;5074085;28;20048;-59
2023/12/27 07:50:02;;;;;;;17.13;8.85;;;;;;;;;;5073640;28;20049;-58
2023/12/27 07:52:30;;;;;;;16.67;10.93;;;;;;;;;;5074006;28;20059;-58
2023/12/27 07:54:58;;;;;;;12.20;8.95;;;;;;;;;;5073705;28;20055;-58
2023/12/27 07:57:24;;;;;;;14.32;9.85;;;;;;;;;;5073908;28;20060;-59
2023/12/27 07:59:55;;;;;;;13.68;8.52;;;;;;;;;;5073671;28;20048;-58
2023/12/27 08:02:22;;;;;;;17.00;10.50;;;;;;;;;;5073315;28;20413;-58
2023/12/27 08:04:49;;;;;;;15.55;9.93;;;;;;;;;;5072994;28;20056;-59
2023/12/27 08:07:16;;;;;;;17.13;9.95;;;;;;;;;;5073406;28;20500;-59
2023/12/27 08:09:44;;;;;;;14.60;9.50;;;;;;;;;;5072977;28;20052;-58
2023/12/27 08:12:11;;;;;;;15.80;9.85;;;;;;;;;;5073063;28;20059;-58
2023/12/27 08:14:37;;;;;;;16.88;8.70;;;;;;;;;;5072881;28;20052;-59
2023/12/27 08:17:04;;;;;;;13.43;8.15;;;;;;;;;;5072933;28;20079;-58
2023/12/27 08:19:31;;;;;;;11.57;7.85;;;;;;;;;;5073204;28;20415;-59
2023/12/27 08:21:58;;;;;;;10.80;6.72;;;;;;;;;;5073145;28;20052;-60
2023/12/27 08:24:25;;;;;;;8.82;5.78;;;;;;;;;;5072787;28;20052;-59
2023/12/27 08:26:53;;;;;;;10.90;5.72;;;;;;;;;;5073223;28;20056;-58
2023/12/27 08:29:20;;;;;;;10.25;5.18;;;;;;;;;;5073049;28;20059;-59
2023/12/27 08:31:49;;;;;;;7.40;4.32;;;;;;;;;;5072458;28;20071;-59
2023/12/27 08:34:16;;;;;;;12.10;7.47;;;;;;;;;;5072725;28;20547;-60
2023/12/27 08:36:45;;;;;;;10.27;6.95;;;;;;;;;;5072769;28;20485;-60
2023/12/27 08:39:11;;;;;;;16.93;10.97;;;;;;;;;;5073216;28;20052;-57
2023/12/27 08:41:38;;;;;;;14.02;9.25;;;;;;;;;;5072941;28;20486;-59
2023/12/27 08:44:06;;;;;;;13.80;9.30;;;;;;;;;;5072630;28;20418;-58
2023/12/27 08:46:33;;;;;;;11.85;6.47;;;;;;;;;;5073076;28;20059;-58
2023/12/27 08:49:00;;;;;;;14.70;7.93;;;;;;;;;;5073024;28;20409;-58
2023/12/27 08:51:27;;;;;;;8.45;5.53;;;;;;;;;;5072278;28;20052;-58
2023/12/27 08:53:54;;;;;;;6.10;3.03;;;;;;;;;;5072754;28;20056;-58
2023/12/27 08:56:21;;;;;;;6.13;3.55;;;;;;;;;;5072802;28;20484;-58
2023/12/27 08:58:47;;;;;;;7.15;3.08;;;;;;;;;;5072672;28;20478;-59
2023/12/27 09:01:16;;;;;;;6.57;2.70;;;;;;;;;;5072818;28;20055;-59
2023/12/27 09:03:43;;;;;;;6.20;2.30;;;;;;;;;;5072007;28;20053;-58
2023/12/27 09:06:10;;;;;;;7.53;2.53;;;;;;;;;;5072714;28;20056;-58
2023/12/27 09:08:37;;;;;;;5.55;2.40;;;;;;;;;;5072612;28;20052;-58
2023/12/27 09:11:04;;;;;;;4.00;2.15;;;;;;;;;;5072720;28;20489;-58
2023/12/27 09:13:31;;;;;;;4.93;2.42;;;;;;;;;;5072572;28;20429;-58
2023/12/27 09:15:57;;;;;;;5.10;2.08;;;;;;;;;;5072555;28;20052;-58
2023/12/27 09:18:26;;;;;;;5.75;2.35;;;;;;;;;;5072116;28;20059;-59
2023/12/27 09:20:54;;;;;;;7.55;2.10;;;;;;;;;;5072122;28;20049;-58
2023/12/27 09:23:21;;;;;;;4.88;2.05;;;;;;;;;;5072405;28;20063;-58
2023/12/27 09:25:47;;;;;;;4.78;2.10;;;;;;;;;;5072552;28;20405;-59
2023/12/27 09:28:14;;;;;;;4.30;2.28;;;;;;;;;;5072495;28;20386;-59
2023/12/27 09:30:41;;;;;;;4.28;2.15;;;;;;;;;;5071865;28;20490;-58
2023/12/27 09:33:09;;;;;;;6.57;2.20;;;;;;;;;;5072377;28;20409;-58
2023/12/27 09:35:37;;;;;;;5.82;2.08;;;;;;;;;;5072187;28;20052;-58
2023/12/27 09:38:04;;;;;;;4.03;1.80;;;;;;;;;;5072116;28;20501;-58
2023/12/27 09:40:31;;;;;;;3.67;2.03;;;;;;;;;;5072248;28;20079;-57
2023/12/27 09:42:58;;;;;;;4.97;2.05;;;;;;;;;;5072956;28;20048;-58
2023/12/27 09:45:26;;;;;;;4.22;1.90;;;;;;;;;;5076145;28;20055;-58
2023/12/27 09:47:55;;;;;;;3.55;2.03;;;;;;;;;;5076177;28;20059;-58
2023/12/27 09:50:22;;;;;;;3.30;1.75;;;;;;;;;;5076089;28;20048;-58
2023/12/27 09:52:51;;;;;;;3.33;1.70;;;;;;;;;;5075868;28;20064;-58
2023/12/27 09:55:17;;;;;;;3.22;1.50;;;;;;;;;;5076110;28;20059;-58
2023/12/27 09:57:46;;;;;;;3.22;1.80;;;;;;;;;;5075673;28;20052;-57
2023/12/27 10:00:13;;;;;;;3.95;1.63;;;;;;;;;;5076074;28;20060;-57
2023/12/27 10:02:42;;;;;;;3.08;1.42;;;;;;;;;;5076052;28;20044;-58
2023/12/27 10:05:15;;;;;;;4.05;1.40;;;;;;;;;;5075549;28;20068;-58
2023/12/27 10:07:42;;;;;;;3.72;1.80;;;;;;;;;;5075610;28;20060;-58
2023/12/27 10:10:10;;;;;;;3.17;1.25;;;;;;;;;;5075507;28;20444;-57
2023/12/27 10:12:39;;;;;;;2.08;1.20;;;;;;;;;;5075449;28;20053;-58
2023/12/27 10:15:08;;;;;;;3.53;1.38;;;;;;;;;;5075642;28;20079;-58
2023/12/27 10:17:34;;;;;;;3.13;1.73;;;;;;;;;;5075776;28;20052;-57
2023/12/27 10:20:01;;;;;;;2.38;1.27;;;;;;;;;;5075351;28;20056;-57
2023/12/27 10:22:28;;;;;;;2.75;1.35;;;;;;;;;;5075331;28;20053;-59
2023/12/27 10:24:56;;;;;;;3.85;1.67;;;;;;;;;;5075435;28;20056;-59
2023/12/27 10:27:24;;;;;;;1.85;1.30;;;;;;;;;;5075468;28;20056;-59
2023/12/27 10:29:51;;;;;;;2.03;1.20;;;;;;;;;;5075536;28;20053;-59
2023/12/27 10:32:18;;;;;;;1.92;1.20;;;;;;;;;;5075323;28;20052;-59
2023/12/27 10:34:45;;;;;;;2.58;1.40;;;;;;;;;;5075151;28;20053;-59
2023/12/27 10:37:13;;;;;;;2.80;1.55;;;;;;;;;;5075327;28;20067;-59
2023/12/27 10:39:44;;;;;;;2.58;1.50;;;;;;;;;;5075090;28;20053;-59
2023/12/27 10:42:11;;;;;;;2.17;1.23;;;;;;;;;;5075263;28;20059;-58
2023/12/27 10:44:40;;;;;;;2.28;1.35;;;;;;;;;;5074725;28;21551;-58
2023/12/27 10:47:11;;;;;;;2.45;1.30;;;;;;;;;;5075057;28;20052;-58
2023/12/27 10:49:40;;;;;;;2.65;1.30;;;;;;;;;;5075124;28;20057;-58
2023/12/27 10:52:09;;;;;;;3.05;1.50;;;;;;;;;;5074923;28;20405;-58
2023/12/27 10:54:36;;;;;;;2.38;1.30;;;;;;;;;;5073455;28;20064;-57
2023/12/27 10:57:03;;;;;;;2.80;1.52;;;;;;;;;;5074695;28;20060;-59
2023/12/27 10:59:31;;;;;;;2.42;1.83;;;;;;;;;;5074537;28;20497;-58
2023/12/27 11:02:00;;;;;;;3.35;1.98;;;;;;;;;;5074899;28;20059;-58
2023/12/27 11:04:28;;;;;;;2.72;1.80;;;;;;;;;;5074102;28;20057;-58
2023/12/27 11:06:56;;;;;;;3.30;2.00;;;;;;;;;;5074731;28;20382;-58
2023/12/27 11:09:23;;;;;;;3.08;2.00;;;;;;;;;;5074538;28;20053;-58
2023/12/27 11:11:52;;;;;;;3.03;2.10;;;;;;;;;;5074655;28;20048;-59
2023/12/27 11:14:24;;;;;;;2.67;2.08;;;;;;;;;;5074656;28;20059;-58
2023/12/27 11:16:53;;;;;;;3.08;1.92;;;;;;;;;;5074621;28;20059;-58
2023/12/27 11:19:23;;;;;;;3.57;2.00;;;;;;;;;;5074120;28;20067;-58
2023/12/27 11:21:50;;;;;;;3.30;2.03;;;;;;;;;;5074424;28;20482;-58
2023/12/27 11:24:18;;;;;;;2.78;2.35;;;;;;;;;;5074594;28;20413;-58
2023/12/27 11:26:48;;;;;;;2.97;2.28;;;;;;;;;;5074287;28;20052;-58
2023/12/27 11:29:16;;;;;;;2.92;2.38;;;;;;;;;;5074515;28;20048;-59
2023/12/27 11:31:44;;;;;;;5.38;2.58;;;;;;;;;;5073962;28;20049;-58
2023/12/27 11:34:12;;;;;;;4.25;2.60;;;;;;;;;;5073981;28;20056;-58
2023/12/27 11:36:40;;;;;;;2.83;1.98;;;;;;;;;;5074018;28;20057;-57
2023/12/27 11:39:15;;;;;;;4.53;2.60;;;;;;;;;;5073801;28;20490;-59
2023/12/27 11:41:42;;;;;;;2.97;2.20;;;;;;;;;;5074093;28;20057;-59
2023/12/27 11:44:09;;;;;;;2.42;2.10;;;;;;;;;;5074041;28;20057;-59
2023/12/27 11:46:36;;;;;;;4.93;2.40;;;;;;;;;;5074075;28;20060;-59
2023/12/27 11:49:03;;;;;;;3.35;2.20;;;;;;;;;;5074024;28;20063;-59
2023/12/27 11:51:29;;;;;;;3.35;2.13;;;;;;;;;;5073893;28;20048;-59
2023/12/27 11:53:58;;;;;;;3.05;2.13;;;;;;;;;;5073666;28;20056;-59
2023/12/27 11:56:27;;;;;;;2.95;1.90;;;;;;;;;;5074125;28;20057;-58
2023/12/27 11:58:54;;;;;;;3.22;2.30;;;;;;;;;;5073494;28;20049;-59
2023/12/27 12:01:30;;;;;;;3.65;2.20;;;;;;;;;;5073191;28;20414;-59
2023/12/27 12:04:11;;;;;;;3.75;2.10;;;;;;;;;;5073261;28;20054;-59
2023/12/27 12:06:53;;;;;;;3.70;2.20;;;;;;;;;;5073390;28;20052;-59
2023/12/27 12:09:22;;;;;;;3.40;1.73;;;;;;;;;;5070485;28;20049;-60
2023/12/27 12:11:49;;;;;;;3.60;1.80;;;;;;;;;;5073227;28;20052;-59
2023/12/27 12:14:16;;;;;;;3.15;1.85;;;;;;;;;;5073234;28;20052;-59
2023/12/27 12:16:42;;;;;;;2.30;1.65;;;;;;;;;;5073294;28;20052;-59
2023/12/27 12:19:12;;;;;;;2.53;1.50;;;;;;;;;;5073427;28;20433;-59
2023/12/27 12:21:40;;;;;;;2.10;1.45;;;;;;;;;;5073601;28;20060;-58
2023/12/27 12:24:07;;;;;;;2.42;1.80;;;;;;;;;;5073260;28;20053;-59
2023/12/27 12:26:36;;;;;;;2.60;1.90;;;;;;;;;;5073475;28;20501;-59
2023/12/27 12:29:05;;;;;;;2.33;1.70;;;;;;;;;;5073120;28;20056;-58
2023/12/27 12:31:32;;;;;;;2.05;1.67;;;;;;;;;;5073265;28;20060;-59
2023/12/27 12:33:59;;;;;;;2.83;1.50;;;;;;;;;;5073137;28;20053;-58
2023/12/27 12:36:26;;;;;;;2.63;1.60;;;;;;;;;;5073069;28;20060;-58
2023/12/27 12:38:53;;;;;;;3.03;1.52;;;;;;;;;;5072816;28;20079;-58
2023/12/27 12:41:20;;;;;;;2.22;1.40;;;;;;;;;;5073110;28;20052;-58
2023/12/27 12:43:49;;;;;;;2.15;1.60;;;;;;;;;;5073042;28;20059;-58
2023/12/27 12:46:17;;;;;;;2.13;1.42;;;;;;;;;;5073001;28;20057;-59
2023/12/27 12:48:44;;;;;;;2.70;1.42;;;;;;;;;;5072562;28;20049;-59
2023/12/27 12:51:11;;;;;;;2.10;1.20;;;;;;;;;;5072733;28;20048;-59
2023/12/27 12:53:38;;;;;;;4.20;1.50;;;;;;;;;;5072446;28;20056;-59
2023/12/27 12:56:06;;;;;;;2.20;1.20;;;;;;;;;;5072847;28;20056;-58
2023/12/27 12:58:33;;;;;;;2.97;1.10;;;;;;;;;;5072739;28;20056;-57
2023/12/27 13:01:01;;;;;;;2.00;1.25;;;;;;;;;;5072588;28;20080;-59
2023/12/27 13:03:28;;;;;;;2.97;1.30;;;;;;;;;;5072210;28;20052;-58
2023/12/27 13:05:55;;;;;;;1.83;1.20;;;;;;;;;;5072516;28;20059;-58
2023/12/27 13:08:23;;;;;;;1.60;1.00;;;;;;;;;;5072435;28;20048;-59
2023/12/27 13:10:50;;;;;;;2.28;1.20;;;;;;;;;;5072596;28;20052;-58
2023/12/27 13:13:16;;;;;;;4.65;1.38;;;;;;;;;;5072480;28;20478;-59
2023/12/27 13:15:43;;;;;;;2.30;1.27;;;;;;;;;;5072423;28;20061;-58
2023/12/27 13:18:11;;;;;;;2.53;1.35;;;;;;;;;;5071730;28;20056;-58
2023/12/27 13:20:38;;;;;;;2.97;1.70;;;;;;;;;;5072373;28;20486;-58
2023/12/27 13:23:05;;;;;;;2.00;1.20;;;;;;;;;;5072312;28;20056;-59
2023/12/27 13:25:32;;;;;;;3.05;1.05;;;;;;;;;;5072148;28;20119;-58
2023/12/27 13:27:59;;;;;;;2.42;1.50;;;;;;;;;;5072137;28;20052;-58
2023/12/27 13:30:25;;;;;;;2.17;1.20;;;;;;;;;;5072341;28;20063;-59
2023/12/27 13:32:52;;;;;;;1.98;1.35;;;;;;;;;;5072332;28;20052;-60
2023/12/27 13:35:20;;;;;;;2.67;1.13;;;;;;;;;;5072308;28;20059;-59
2023/12/27 13:37:47;;;;;;;2.28;1.30;;;;;;;;;;5071803;28;20057;-58
2023/12/27 13:40:16;;;;;;;2.00;1.30;;;;;;;;;;5072168;28;20053;-59
2023/12/27 13:42:42;;;;;;;3.30;1.55;;;;;;;;;;5072176;28;20048;-59
2023/12/27 13:45:09;;;;;;;2.42;1.35;;;;;;;;;;5071912;28;20071;-59
2023/12/27 13:47:36;;;;;;;2.47;1.27;;;;;;;;;;5071900;28;20370;-58
2023/12/27 13:50:03;;;;;;;3.20;1.50;;;;;;;;;;5071818;28;20057;-59
2023/12/27 13:52:31;;;;;;;2.00;1.45;;;;;;;;;;5072155;28;20473;-59
2023/12/27 13:54:58;;;;;;;1.90;1.30;;;;;;;;;;5071626;28;20063;-59
2023/12/27 13:57:25;;;;;;;1.70;1.23;;;;;;;;;;5072078;28;20049;-59
2023/12/27 13:59:52;;;;;;;1.85;1.30;;;;;;;;;;5071961;28;20064;-59
2023/12/27 14:02:19;;;;;;;2.13;1.50;;;;;;;;;;5071765;28;20055;-58
2023/12/27 14:04:46;;;;;;;2.53;1.65;;;;;;;;;;5071634;28;20057;-58
2023/12/27 14:07:13;;;;;;;2.22;1.30;;;;;;;;;;5071657;28;20056;-59
2023/12/27 14:09:42;;;;;;;2.40;1.50;;;;;;;;;;5071937;28;20056;-58
2023/12/27 14:12:08;;;;;;;3.08;1.40;;;;;;;;;;5071700;28;20056;-59
2023/12/27 14:14:37;;;;;;;2.17;1.40;;;;;;;;;;5072179;28;20459;-59
2023/12/27 14:17:03;;;;;;;3.38;1.40;;;;;;;;;;5072036;28;20057;-58
2023/12/27 14:19:30;;;;;;;2.92;1.50;;;;;;;;;;5071519;28;20053;-58
2023/12/27 14:21:57;;;;;;;2.35;1.75;;;;;;;;;;5071829;28;20063;-59
2023/12/27 14:24:24;;;;;;;3.72;1.70;;;;;;;;;;5071758;28;20068;-60
2023/12/27 14:26:52;;;;;;;3.28;1.52;;;;;;;;;;5071617;28;20065;-58
2023/12/27 14:29:19;;;;;;;2.53;1.48;;;;;;;;;;5073348;28;20056;-58
2023/12/27 14:31:46;;;;;;;3.70;1.63;;;;;;;;;;5075461;28;20056;-59
2023/12/27 14:34:14;;;;;;;4.00;1.80;;;;;;;;;;5075534;28;20055;-59